Time;durP1;ratioP1;P1;durP2;ratioP2;P2;SDS_P1;SDS_P2;PMS_P1;PMS_P2;Temp;Humidity;BMP_temperature;BMP_pressure;BME280_temperature;BME280_humidity;BME280_pressure;Samples;Min_cycle;Max_cycle;Signal;HPM_P1;HPM_P2
2022/07/13 00:02:23;;;;;;;4.65;1.45;;;;;;;20.67;43.55;98628.75;4503201;31;20140;-83
2022/07/13 00:04:50;;;;;;;6.95;1.70;;;;;;;20.70;43.44;98639.00;4502688;31;20163;-82
2022/07/13 00:07:17;;;;;;;4.07;1.30;;;;;;;20.76;43.42;98628.06;4503030;31;20095;-82
2022/07/13 00:09:44;;;;;;;5.78;1.70;;;;;;;20.54;44.08;98635.88;4502987;31;20143;-82
2022/07/13 00:12:11;;;;;;;5.87;1.45;;;;;;;20.39;44.12;98627.31;4502899;31;20084;-83
2022/07/13 00:14:38;;;;;;;3.62;1.40;;;;;;;20.89;43.41;98631.44;4503125;31;20392;-82
2022/07/13 00:17:05;;;;;;;4.72;1.70;;;;;;;20.16;44.75;98621.97;4503041;31;20108;-82
2022/07/13 00:19:32;;;;;;;6.55;1.75;;;;;;;20.61;44.11;98632.66;4502703;31;20088;-83
2022/07/13 00:21:59;;;;;;;5.40;1.60;;;;;;;21.23;42.53;98629.69;4502956;31;20084;-82
2022/07/13 00:24:26;;;;;;;3.35;1.48;;;;;;;21.31;42.03;98629.97;4502969;31;20123;-82
2022/07/13 00:26:53;;;;;;;5.87;1.40;;;;;;;21.65;41.65;98630.78;4502472;31;20099;-83
2022/07/13 00:29:20;;;;;;;2.22;1.40;;;;;;;20.70;43.43;98618.88;4502894;31;20478;-82
2022/07/13 00:31:47;;;;;;;5.65;1.50;;;;;;;20.86;43.46;98625.59;4502857;31;20105;-82
2022/07/13 00:34:14;;;;;;;4.28;1.70;;;;;;;21.47;41.88;98632.22;4502441;31;20092;-83
2022/07/13 00:36:41;;;;;;;7.93;1.50;;;;;;;21.28;42.46;98624.13;4502625;31;20110;-82
2022/07/13 00:39:08;;;;;;;7.25;1.50;;;;;;;22.16;40.42;98625.00;4502526;31;20160;-83
2022/07/13 00:41:35;;;;;;;4.70;1.55;;;;;;;22.95;38.55;98624.66;4502705;31;20096;-82
2022/07/13 00:44:07;;;;;;;6.07;1.73;;;;;;;22.81;38.63;98623.16;4502513;31;20144;-82
2022/07/13 00:46:35;;;;;;;3.87;1.45;;;;;;;23.02;38.37;98626.66;4502173;31;20110;-82
2022/07/13 00:49:03;;;;;;;7.45;1.50;;;;;;;22.43;39.43;98618.44;4502690;31;20464;-82
2022/07/13 00:51:30;;;;;;;4.85;1.70;;;;;;;21.97;41.01;98626.56;4502622;31;20095;-82
2022/07/13 00:53:58;;;;;;;4.03;1.52;;;;;;;21.90;41.06;98631.47;4502229;31;20155;-83
2022/07/13 00:56:25;;;;;;;3.87;1.60;;;;;;;21.89;40.99;98622.75;4501242;31;20153;-82
2022/07/13 00:58:52;;;;;;;4.32;1.50;;;;;;;22.08;40.81;98621.31;4502507;31;20127;-82
2022/07/13 01:01:19;;;;;;;5.07;1.45;;;;;;;21.87;41.28;98616.78;4502131;31;20151;-83
2022/07/13 01:03:46;;;;;;;6.50;1.40;;;;;;;22.13;40.87;98606.03;4504061;31;20403;-82
2022/07/13 01:06:13;;;;;;;3.50;1.52;;;;;;;22.01;40.86;98620.97;4504236;31;20108;-82
2022/07/13 01:08:40;;;;;;;2.95;1.50;;;;;;;22.10;40.76;98616.75;4504138;31;20493;-83
2022/07/13 01:11:07;;;;;;;7.78;1.80;;;;;;;22.31;40.25;98614.19;4504425;31;20120;-82
2022/07/13 01:13:34;;;;;;;5.90;1.58;;;;;;;22.48;40.01;98614.47;4504426;31;20134;-82
2022/07/13 01:16:02;;;;;;;8.48;2.20;;;;;;;21.73;41.55;98616.22;4502708;31;20112;-82
2022/07/13 01:18:30;;;;;;;9.88;1.73;;;;;;;21.58;41.88;98613.84;4504470;31;20426;-82
2022/07/13 01:20:58;;;;;;;5.25;1.60;;;;;;;21.36;42.16;98611.22;4504344;31;20145;-82
2022/07/13 01:23:25;;;;;;;4.43;1.60;;;;;;;21.54;41.91;98609.81;4502756;31;20234;-82
2022/07/13 01:25:56;;;;;;;2.87;1.52;;;;;;;21.76;41.34;98615.97;4504090;31;20172;-82
2022/07/13 01:28:23;;;;;;;4.05;1.30;;;;;;;21.77;41.17;98613.22;4503852;31;20106;-83
2022/07/13 01:30:50;;;;;;;5.82;1.67;;;;;;;21.53;41.58;98602.88;4516292;31;20098;-82
2022/07/13 01:33:17;;;;;;;2.97;1.60;;;;;;;21.44;41.95;98605.41;4504262;31;20111;-82
2022/07/13 01:35:44;;;;;;;4.12;1.70;;;;;;;21.50;41.86;98594.44;4503875;31;20113;-83
2022/07/13 01:38:12;;;;;;;5.12;1.75;;;;;;;21.53;42.03;98607.31;4504365;31;20083;-82
2022/07/13 01:40:41;;;;;;;3.40;1.52;;;;;;;21.33;42.22;98599.19;4504121;31;20143;-82
2022/07/13 01:43:09;;;;;;;5.55;1.65;;;;;;;21.67;41.70;98607.03;4503448;31;20396;-83
2022/07/13 01:45:36;;;;;;;4.60;1.87;;;;;;;21.09;42.95;98603.69;4504041;31;20605;-82
2022/07/13 01:48:03;;;;;;;3.58;1.67;;;;;;;21.56;41.92;98599.19;4503863;31;20144;-82
2022/07/13 01:50:30;;;;;;;11.20;2.83;;;;;;;21.24;42.48;98605.13;4504036;31;20084;-83
2022/07/13 01:52:57;;;;;;;6.47;1.70;;;;;;;21.40;42.25;98596.09;4502942;31;20114;-82
2022/07/13 01:55:24;;;;;;;2.95;1.67;;;;;;;21.41;42.36;98595.16;4504093;31;20163;-82
2022/07/13 01:57:58;;;;;;;4.78;1.80;;;;;;;21.08;43.16;98600.22;4503694;31;20092;-82
2022/07/13 02:00:26;;;;;;;5.35;1.80;;;;;;;21.20;42.72;98595.81;4504025;31;20076;-82
2022/07/13 02:02:54;;;;;;;3.40;1.70;;;;;;;21.35;42.57;98586.78;4504024;31;20626;-82
2022/07/13 02:05:25;;;;;;;6.78;2.67;;;;;;;21.71;41.71;98594.53;4503728;31;20139;-81
2022/07/13 02:07:53;;;;;;;2.45;1.52;;;;;;;21.25;42.70;98584.97;4502738;31;20426;-82
2022/07/13 02:10:20;;;;;;;5.75;1.62;;;;;;;20.91;43.45;98590.19;4503645;31;20084;-82
2022/07/13 02:12:47;;;;;;;3.85;1.77;;;;;;;20.88;43.47;98587.81;4503867;31;20159;-82
2022/07/13 02:15:14;;;;;;;3.95;1.60;;;;;;;20.91;43.58;98582.31;4503333;31;20118;-82
2022/07/13 02:17:41;;;;;;;6.25;1.70;;;;;;;20.43;44.38;98592.94;4503557;31;20139;-83
2022/07/13 02:20:09;;;;;;;9.82;1.85;;;;;;;20.86;43.90;98588.88;4503864;31;20084;-82
2022/07/13 02:22:45;;;;;;;3.25;1.70;;;;;;;20.83;43.90;98584.69;4503928;31;20095;-82
2022/07/13 02:25:12;;;;;;;3.80;1.70;;;;;;;20.39;44.89;98575.72;4503495;31;20469;-82
2022/07/13 02:27:40;;;;;;;2.67;1.70;;;;;;;20.45;44.97;98575.31;4503788;31;20406;-82
2022/07/13 02:30:08;;;;;;;4.28;1.90;;;;;;;20.72;44.68;98582.03;4503827;31;20106;-82
2022/07/13 02:32:35;;;;;;;3.47;1.83;;;;;;;20.76;44.56;98584.34;4503602;31;20234;-82
2022/07/13 02:35:03;;;;;;;4.85;1.67;;;;;;;20.58;45.09;98582.25;4503744;31;20375;-82
2022/07/13 02:37:30;;;;;;;4.37;1.90;;;;;;;21.05;43.95;98581.25;4503678;31;20106;-82
2022/07/13 02:39:57;;;;;;;5.22;1.85;;;;;;;21.82;42.01;98581.34;4503299;31;20501;-83
2022/07/13 02:42:24;;;;;;;5.07;1.92;;;;;;;21.44;42.66;98584.37;4503528;31;20100;-82
2022/07/13 02:44:52;;;;;;;4.07;1.48;;;;;;;21.60;42.57;98593.56;4503691;31;20159;-82
2022/07/13 02:47:19;;;;;;;2.87;1.50;;;;;;;21.79;42.05;98589.47;4503273;31;20088;-83
2022/07/13 02:49:46;;;;;;;3.78;1.67;;;;;;;20.98;43.62;98586.16;4503701;31;20102;-82
2022/07/13 02:52:13;;;;;;;3.25;1.67;;;;;;;21.37;43.10;98589.28;4503660;31;20438;-82
2022/07/13 02:54:40;;;;;;;3.15;1.67;;;;;;;21.76;41.95;98587.09;4503464;31;20450;-82
2022/07/13 02:57:07;;;;;;;3.90;1.67;;;;;;;21.80;41.83;98588.50;4503674;31;20163;-82
2022/07/13 02:59:35;;;;;;;5.78;1.80;;;;;;;21.62;42.32;98593.44;4503307;31;20123;-83
2022/07/13 03:02:03;;;;;;;7.45;1.92;;;;;;;20.93;44.00;98582.19;4515539;31;20383;-82
2022/07/13 03:04:31;;;;;;;3.62;1.67;;;;;;;21.30;43.07;98591.56;4502350;31;20155;-82
2022/07/13 03:06:58;;;;;;;5.70;2.00;;;;;;;20.93;43.75;98583.03;4503200;31;20106;-83
2022/07/13 03:09:25;;;;;;;4.82;1.83;;;;;;;20.85;44.29;98585.44;4503459;31;20072;-82
2022/07/13 03:11:52;;;;;;;5.62;2.03;;;;;;;21.58;42.36;98592.00;4503544;31;20711;-82
2022/07/13 03:14:19;;;;;;;2.92;1.67;;;;;;;20.95;43.64;98599.50;4503205;31;20430;-83
2022/07/13 03:16:46;;;;;;;4.68;2.00;;;;;;;21.36;42.77;98598.94;4503269;31;20427;-82
2022/07/13 03:19:14;;;;;;;2.80;1.70;;;;;;;20.64;44.24;98595.75;4503609;31;20072;-82
2022/07/13 03:21:40;;;;;;;6.93;1.98;;;;;;;20.45;44.91;98591.03;4503156;31;20096;-83
2022/07/13 03:24:07;;;;;;;3.17;1.70;;;;;;;20.37;45.35;98585.50;4503467;31;20184;-82
2022/07/13 03:26:34;;;;;;;2.85;1.42;;;;;;;20.50;45.15;98585.44;4502001;31;20089;-82
2022/07/13 03:29:01;;;;;;;6.90;1.80;;;;;;;20.65;44.99;98589.56;4503134;31;20072;-83
2022/07/13 03:31:28;;;;;;;4.47;1.90;;;;;;;20.61;45.00;98585.47;4503414;31;20116;-82
2022/07/13 03:33:55;;;;;;;3.12;1.67;;;;;;;20.82;44.47;98590.03;4503472;31;20103;-82
2022/07/13 03:36:22;;;;;;;3.87;1.65;;;;;;;21.12;43.72;98594.75;4502928;31;20102;-82
2022/07/13 03:38:49;;;;;;;3.40;1.65;;;;;;;21.05;43.80;98594.38;4503407;31;20147;-83
2022/07/13 03:41:16;;;;;;;3.72;1.80;;;;;;;21.38;43.14;98593.59;4503390;31;20441;-82
2022/07/13 03:43:43;;;;;;;3.47;1.65;;;;;;;21.22;43.41;98593.06;4502737;31;20112;-82
2022/07/13 03:46:10;;;;;;;4.95;1.80;;;;;;;21.25;43.29;98596.28;4503099;31;20205;-82
2022/07/13 03:48:37;;;;;;;4.68;1.73;;;;;;;21.43;42.79;98594.06;4502875;31;20068;-83
2022/07/13 03:51:04;;;;;;;6.50;2.53;;;;;;;21.51;42.76;98590.84;4503195;31;20083;-83
2022/07/13 03:53:31;;;;;;;6.00;1.70;;;;;;;22.43;40.77;98592.16;4503282;31;20084;-83
2022/07/13 03:55:58;;;;;;;3.20;1.70;;;;;;;22.30;40.57;98583.59;4502705;31;20183;-82
2022/07/13 03:58:25;;;;;;;4.45;1.73;;;;;;;22.48;40.43;98582.94;4503307;31;20163;-82
2022/07/13 04:00:52;;;;;;;3.97;1.77;;;;;;;22.85;39.73;98589.56;4503290;31;20434;-82
2022/07/13 04:03:19;;;;;;;4.85;1.70;;;;;;;23.24;38.60;98588.81;4502949;31;20151;-83
2022/07/13 04:05:46;;;;;;;6.07;1.70;;;;;;;22.93;39.21;98592.38;4503041;31;20092;-82
2022/07/13 04:08:13;;;;;;;2.25;1.50;;;;;;;24.09;36.91;98587.53;4503116;31;20067;-82
2022/07/13 04:10:40;;;;;;;3.30;1.50;;;;;;;23.93;37.55;98590.72;4502792;31;20106;-83
2022/07/13 04:13:07;;;;;;;4.32;1.55;;;;;;;24.21;36.33;98581.97;4503192;31;20122;-83
2022/07/13 04:15:37;;;;;;;6.68;2.22;;;;;;;23.97;36.83;98586.81;4502883;31;20092;-82
2022/07/13 04:18:04;;;;;;;2.67;1.58;;;;;;;24.13;36.88;98583.63;4502786;31;20453;-83
2022/07/13 04:20:31;;;;;;;2.45;1.48;;;;;;;24.43;36.35;98582.69;4503024;31;20096;-83
2022/07/13 04:22:58;;;;;;;2.97;1.52;;;;;;;25.25;34.66;98587.41;4503023;31;20147;-82
2022/07/13 04:25:25;;;;;;;4.85;1.55;;;;;;;24.92;35.02;98588.75;4502538;31;20147;-83
2022/07/13 04:27:52;;;;;;;3.42;1.85;;;;;;;24.97;34.74;98583.84;4502843;31;20071;-82
2022/07/13 04:30:19;;;;;;;2.70;1.50;;;;;;;25.14;34.73;98590.25;4502968;31;20127;-82
2022/07/13 04:32:46;;;;;;;2.83;1.50;;;;;;;25.60;33.90;98591.97;4502571;31;20151;-83
2022/07/13 04:35:13;;;;;;;5.15;1.70;;;;;;;25.71;33.60;98588.34;4502704;31;20123;-83
2022/07/13 04:37:41;;;;;;;2.33;1.30;;;;;;;25.22;34.65;98588.53;4502065;31;20147;-83
2022/07/13 04:40:08;;;;;;;4.22;1.27;;;;;;;25.55;33.89;98594.25;4502728;31;20479;-82
2022/07/13 04:42:35;;;;;;;3.22;1.60;;;;;;;25.54;33.32;98593.41;4502566;31;20171;-82
2022/07/13 04:45:03;;;;;;;4.05;1.70;;;;;;;25.58;33.65;98599.22;4502290;31;20486;-83
2022/07/13 04:47:29;;;;;;;6.95;2.62;;;;;;;25.33;33.25;98598.09;4502595;31;20083;-83
2022/07/13 04:49:57;;;;;;;9.95;4.53;;;;;;;25.30;34.13;98608.94;4502534;31;20103;-83
2022/07/13 04:52:24;;;;;;;3.22;1.60;;;;;;;25.30;33.84;98604.47;4502300;31;20172;-83
2022/07/13 04:54:51;;;;;;;3.22;1.50;;;;;;;25.39;33.87;98608.88;4502444;31;20109;-83
2022/07/13 04:57:22;;;;;;;3.62;1.55;;;;;;;25.71;33.10;98612.13;4502619;31;20148;-83
2022/07/13 04:59:49;;;;;;;4.55;1.60;;;;;;;25.68;33.14;98611.41;4502146;31;20131;-83
2022/07/13 05:02:16;;;;;;;4.12;1.40;;;;;;;25.72;32.88;98619.91;4502492;31;20166;-83
2022/07/13 05:04:43;;;;;;;4.50;1.58;;;;;;;25.98;32.49;98616.56;4502222;31;20076;-84
2022/07/13 05:07:10;;;;;;;6.75;2.90;;;;;;;26.19;32.29;98609.19;4502003;31;20092;-83
2022/07/13 05:09:37;;;;;;;4.62;1.60;;;;;;;26.39;32.03;98628.41;4502129;31;20514;-83
2022/07/13 05:12:04;;;;;;;3.58;1.50;;;;;;;26.87;31.10;98617.38;4502279;31;20506;-83
2022/07/13 05:14:31;;;;;;;2.97;1.77;;;;;;;27.12;30.65;98618.41;4501942;31;20094;-83
2022/07/13 05:16:58;;;;;;;4.18;1.52;;;;;;;26.40;31.66;98624.78;4501759;31;20071;-83
2022/07/13 05:19:25;;;;;;;4.47;1.70;;;;;;;26.69;31.16;98622.72;4502128;31;20104;-83
2022/07/13 05:21:52;;;;;;;6.37;2.35;;;;;;;26.76;31.09;98615.81;4501885;31;20214;-82
2022/07/13 05:24:19;;;;;;;7.18;1.80;;;;;;;26.37;31.48;98619.78;4502187;31;20464;-82
2022/07/13 05:26:45;;;;;;;4.15;1.25;;;;;;;26.32;31.79;98624.66;4501535;31;20245;-83
2022/07/13 05:29:12;;;;;;;5.97;1.55;;;;;;;26.90;30.91;98613.59;4502023;31;20095;-83
2022/07/13 05:31:39;;;;;;;9.77;1.92;;;;;;;26.69;31.00;98617.44;4502013;31;20108;-83
2022/07/13 05:34:06;;;;;;;4.47;1.55;;;;;;;26.60;31.41;98628.09;4501582;31;20088;-82
2022/07/13 05:36:34;;;;;;;10.15;1.58;;;;;;;26.71;31.13;98628.69;4501783;31;20100;-82
2022/07/13 05:39:01;;;;;;;8.52;1.40;;;;;;;26.51;31.38;98630.66;4501992;31;20087;-82
2022/07/13 05:41:28;;;;;;;17.95;2.17;;;;;;;26.40;31.58;98625.62;4501521;31;20505;-82
2022/07/13 05:43:55;;;;;;;33.85;2.35;;;;;;;26.70;31.35;98629.69;4501632;31;20171;-82
2022/07/13 05:46:22;;;;;;;4.80;1.62;;;;;;;26.52;31.37;98627.03;4501487;31;20144;-82
2022/07/13 05:48:49;;;;;;;16.73;1.75;;;;;;;26.92;31.39;98643.41;4501452;31;20092;-82
2022/07/13 05:51:16;;;;;;;6.68;1.65;;;;;;;27.17;30.90;98636.47;4504032;31;20160;-83
2022/07/13 05:54:01;;;;;;;8.07;1.55;;;;;;;27.43;30.31;98636.44;4504095;31;20159;-82
2022/07/13 05:56:48;;;;;;;6.28;1.70;;;;;;;27.54;30.28;98641.47;4503561;31;20135;-82
2022/07/13 05:59:15;;;;;;;5.50;1.30;;;;;;;27.27;30.29;98638.03;4504004;31;20143;-82
2022/07/13 06:01:42;;;;;;;4.72;1.40;;;;;;;27.56;29.46;98631.56;4503863;31;20132;-84
2022/07/13 06:04:09;;;;;;;3.53;1.40;;;;;;;27.05;30.32;98631.44;4504028;31;20084;-83
2022/07/13 06:06:36;;;;;;;5.18;1.62;;;;;;;26.76;30.86;98621.09;4503865;31;20144;-81
2022/07/13 06:09:03;;;;;;;2.28;1.40;;;;;;;26.43;31.82;98629.75;4503636;31;20099;-82
2022/07/13 06:11:31;;;;;;;7.95;1.65;;;;;;;26.99;31.12;98625.91;4504011;31;20155;-81
2022/07/13 06:13:58;;;;;;;4.07;1.50;;;;;;;26.77;31.14;98628.06;4503858;31;20391;-79
2022/07/13 06:16:25;;;;;;;8.63;1.90;;;;;;;26.62;31.38;98618.19;4503279;31;20080;-78
2022/07/13 06:18:52;;;;;;;8.90;1.50;;;;;;;26.52;31.63;98626.22;4503793;31;20493;-78
2022/07/13 06:21:19;;;;;;;3.80;1.42;;;;;;;27.08;31.08;98631.13;4502632;31;20158;-84
2022/07/13 06:23:46;;;;;;;2.47;1.42;;;;;;;26.61;31.51;98627.13;4503486;31;20081;-84
2022/07/13 06:26:13;;;;;;;13.23;1.90;;;;;;;27.13;31.11;98629.84;4503779;31;20072;-84
2022/07/13 06:28:40;;;;;;;4.90;1.60;;;;;;;27.01;30.80;98622.13;4503811;31;20392;-77
2022/07/13 06:31:09;;;;;;;2.55;1.40;;;;;;;27.27;31.02;98630.09;4502915;31;20137;-77
2022/07/13 06:33:36;;;;;;;2.17;1.30;;;;;;;26.90;31.30;98625.00;4503694;31;20094;-78
2022/07/13 06:36:03;;;;;;;15.25;1.62;;;;;;;26.93;31.17;98624.72;4503642;31;20404;-78
2022/07/13 06:38:30;;;;;;;9.75;1.40;;;;;;;26.95;31.73;98624.56;4503406;31;20139;-77
2022/07/13 06:40:57;;;;;;;5.32;1.40;;;;;;;26.80;31.83;98622.47;4503727;31;20116;-77
2022/07/13 06:43:25;;;;;;;6.47;1.60;;;;;;;26.77;32.06;98628.06;4503161;31;20159;-78
2022/07/13 06:45:52;;;;;;;9.98;1.70;;;;;;;26.74;32.32;98638.13;4503233;31;20088;-77
2022/07/13 06:48:19;;;;;;;4.85;1.65;;;;;;;26.57;32.28;98629.22;4502565;31;20461;-78
2022/07/13 06:50:46;;;;;;;10.40;1.80;;;;;;;27.45;31.43;98621.25;4503575;31;20112;-78
2022/07/13 06:53:13;;;;;;;6.45;1.55;;;;;;;27.65;30.95;98633.28;4503682;31;20509;-78
2022/07/13 06:55:40;;;;;;;3.72;1.10;;;;;;;27.30;30.97;98624.47;4503507;31;20081;-78
2022/07/13 06:58:07;;;;;;;37.65;3.08;;;;;;;27.54;31.43;98630.88;4503237;31;20091;-78
2022/07/13 07:00:34;;;;;;;21.30;1.83;;;;;;;27.36;30.92;98618.53;4503437;31;20112;-78
2022/07/13 07:03:01;;;;;;;5.05;1.23;;;;;;;27.29;31.41;98612.22;4503546;31;20084;-78
2022/07/13 07:05:29;;;;;;;17.95;1.95;;;;;;;27.53;31.39;98629.22;4502951;31;20088;-78
2022/07/13 07:07:56;;;;;;;3.08;1.20;;;;;;;27.41;30.89;98628.66;4503552;31;20486;-77
2022/07/13 07:10:23;;;;;;;17.15;3.03;;;;;;;27.33;31.16;98634.75;4503576;31;20099;-77
2022/07/13 07:12:56;;;;;;;5.10;1.25;;;;;;;27.79;30.44;98632.69;4503261;31;20080;-79
2022/07/13 07:15:24;;;;;;;10.07;1.58;;;;;;;28.00;30.48;98632.25;4503344;31;20192;-78
2022/07/13 07:17:51;;;;;;;9.13;1.95;;;;;;;27.58;30.39;98635.72;4503584;31;20396;-79
2022/07/13 07:20:18;;;;;;;3.85;1.35;;;;;;;27.19;31.71;98630.03;4503129;31;20088;-79
2022/07/13 07:22:46;;;;;;;2.92;1.30;;;;;;;28.07;30.35;98632.41;4503503;31;20102;-79
2022/07/13 07:25:13;;;;;;;6.70;1.95;;;;;;;27.82;30.43;98624.38;4503302;31;20132;-80
2022/07/13 07:27:41;;;;;;;6.57;1.40;;;;;;;28.42;30.22;98623.41;4503149;31;20115;-80
2022/07/13 07:30:09;;;;;;;4.60;1.48;;;;;;;29.55;28.42;98625.09;4503188;31;20121;-79
2022/07/13 07:32:36;;;;;;;3.17;1.20;;;;;;;28.86;28.64;98615.91;4503305;31;20113;-80
2022/07/13 07:35:03;;;;;;;5.22;1.62;;;;;;;28.71;29.21;98614.91;4502988;31;20102;-80
2022/07/13 07:37:30;;;;;;;4.07;1.30;;;;;;;29.10;29.20;98621.22;4503373;31;20130;-79
2022/07/13 07:39:57;;;;;;;10.38;1.30;;;;;;;28.48;29.37;98615.59;4503024;31;20183;-81
2022/07/13 07:42:24;;;;;;;6.12;1.48;;;;;;;28.30;30.06;98614.09;4503334;31;20150;-79
2022/07/13 07:44:51;;;;;;;3.95;1.30;;;;;;;28.81;29.23;98618.22;4503015;31;20558;-80
2022/07/13 07:47:22;;;;;;;8.38;1.60;;;;;;;28.94;29.34;98615.94;4502984;31;20147;-80
2022/07/13 07:49:49;;;;;;;2.62;1.20;;;;;;;29.77;28.08;98604.06;4503194;31;20110;-79
2022/07/13 07:52:16;;;;;;;6.72;1.37;;;;;;;29.82;27.91;98605.22;4503240;31;20486;-79
2022/07/13 07:55:03;;;;;;;3.83;1.37;;;;;;;29.94;27.55;98601.16;4502717;31;20088;-79
2022/07/13 07:57:30;;;;;;;5.00;1.30;;;;;;;29.98;27.57;98614.91;4503095;31;20095;-79
2022/07/13 07:59:57;;;;;;;4.82;1.30;;;;;;;29.65;28.01;98620.41;4503198;31;20083;-79
2022/07/13 08:02:24;;;;;;;8.48;1.67;;;;;;;30.37;27.00;98617.53;4502721;31;20087;-79
2022/07/13 08:04:51;;;;;;;3.78;1.37;;;;;;;30.01;27.49;98616.41;4503054;31;20089;-80
2022/07/13 08:07:18;;;;;;;6.05;1.40;;;;;;;30.31;27.73;98618.25;4503053;31;20415;-79
2022/07/13 08:09:45;;;;;;;2.62;1.30;;;;;;;30.24;27.16;98623.44;4502743;31;20092;-79
2022/07/13 08:12:12;;;;;;;6.00;1.40;;;;;;;29.66;28.13;98623.88;4502316;31;20096;-80
2022/07/13 08:14:39;;;;;;;18.62;2.15;;;;;;;30.64;26.93;98615.38;4503059;31;20102;-79
2022/07/13 08:17:06;;;;;;;2.08;1.10;;;;;;;30.62;25.50;98622.66;4502729;31;20104;-80
2022/07/13 08:19:33;;;;;;;8.57;1.33;;;;;;;29.70;27.45;98606.59;4503048;31;20095;-79
2022/07/13 08:22:07;;;;;;;3.40;1.40;;;;;;;29.90;27.52;98613.16;4502697;31;20381;-79
2022/07/13 08:24:34;;;;;;;11.30;1.90;;;;;;;30.16;27.63;98618.16;4502966;31;20222;-79
2022/07/13 08:27:01;;;;;;;6.18;1.25;;;;;;;29.15;28.94;98610.09;4502857;31;20136;-79
2022/07/13 08:29:28;;;;;;;6.87;1.80;;;;;;;29.09;28.78;98618.72;4502496;31;20111;-79
2022/07/13 08:31:55;;;;;;;17.02;2.05;;;;;;;29.97;27.13;98613.25;4502875;31;20075;-79
2022/07/13 08:39:53;;;;;;;2.22;1.00;;;;;;;29.54;28.36;98615.47;4513066;31;20099;-80
2022/07/13 08:42:21;;;;;;;9.95;1.50;;;;;;;29.02;28.47;98618.56;4502711;31;20079;-80
2022/07/13 08:44:48;;;;;;;2.20;1.30;;;;;;;28.40;30.17;98599.69;4502142;31;20123;-80
2022/07/13 08:47:16;;;;;;;7.22;1.40;;;;;;;29.67;28.49;98609.62;4502583;31;20328;-80
2022/07/13 08:49:43;;;;;;;6.22;1.50;;;;;;;30.23;27.83;98616.47;4501389;31;20121;-80
2022/07/13 08:52:10;;;;;;;4.00;1.20;;;;;;;30.98;26.97;98605.06;4502291;31;20167;-80
2022/07/13 08:54:37;;;;;;;2.83;1.20;;;;;;;31.09;26.92;98606.44;4502507;31;20102;-80
2022/07/13 08:57:04;;;;;;;9.65;1.50;;;;;;;31.52;26.07;98591.47;4502623;31;20151;-79
2022/07/13 08:59:31;;;;;;;6.35;1.50;;;;;;;30.77;26.89;98600.41;4488388;31;20104;-79
2022/07/13 09:01:58;;;;;;;3.83;1.25;;;;;;;31.67;25.71;98588.78;4502441;31;20163;-79
2022/07/13 09:04:25;;;;;;;7.18;1.33;;;;;;;31.91;25.27;98596.50;4502186;31;20114;-79
2022/07/13 09:06:52;;;;;;;4.90;1.30;;;;;;;31.40;25.90;98598.28;4502292;31;20141;-79
2022/07/13 09:09:33;;;;;;;9.10;1.58;;;;;;;31.51;25.57;98583.66;4502332;31;20358;-79
2022/07/13 09:12:21;;;;;;;11.35;1.60;;;;;;;31.60;25.51;98571.88;4501788;31;20575;-79
2022/07/13 09:15:01;;;;;;;7.37;1.77;;;;;;;30.73;25.96;98571.66;4502040;31;20175;-79
2022/07/13 09:17:43;;;;;;;3.83;1.30;;;;;;;30.35;26.79;98576.94;4514231;31;20120;-79
2022/07/13 09:20:10;;;;;;;15.95;1.87;;;;;;;30.35;26.96;98570.81;4501979;31;20096;-79
2022/07/13 09:22:45;;;;;;;7.68;1.70;;;;;;;30.65;26.72;98569.91;4502129;31;20092;-79
2022/07/13 09:25:14;;;;;;;1.87;1.10;;;;;;;30.09;26.83;98576.47;4503013;31;20391;-79
2022/07/13 09:27:47;;;;;;;6.22;1.20;;;;;;;30.51;26.83;98568.81;4503187;31;20105;-79
2022/07/13 09:30:26;;;;;;;3.00;1.10;;;;;;;29.74;27.35;98577.81;4504140;31;20721;-79
2022/07/13 09:32:55;;;;;;;3.35;1.12;;;;;;;30.69;25.82;98554.38;4504060;31;20118;-79
2022/07/13 09:35:40;;;;;;;3.70;1.02;;;;;;;31.42;25.52;98566.94;4504101;31;20421;-80
2022/07/13 09:38:07;;;;;;;2.87;1.20;;;;;;;31.97;24.88;98564.72;4504158;31;20588;-80
2022/07/13 09:40:34;;;;;;;2.72;1.27;;;;;;;31.94;24.99;98568.59;4502630;31;20515;-79
2022/07/13 09:48:33;;;;;;;7.75;1.50;;;;;;;31.04;25.87;98571.50;4503840;31;20441;-79
2022/07/13 09:51:00;;;;;;;3.28;1.10;;;;;;;31.23;25.38;98581.66;4504073;31;20087;-80
2022/07/13 09:53:29;;;;;;;11.63;1.35;;;;;;;31.01;26.13;98575.37;4502629;31;20178;-79
2022/07/13 09:55:58;;;;;;;4.25;1.02;;;;;;;31.42;25.36;98560.78;4503823;31;20081;-80
2022/07/13 09:58:30;;;;;;;5.15;1.10;;;;;;;31.43;25.24;98565.09;4502943;31;20119;-79
2022/07/13 10:00:59;;;;;;;7.80;1.10;;;;;;;32.07;23.98;98562.56;4503753;31;20106;-79
2022/07/13 10:03:29;;;;;;;3.35;1.20;;;;;;;30.38;25.68;98559.78;4503878;31;20080;-78
2022/07/13 10:05:59;;;;;;;2.70;1.00;;;;;;;31.83;24.85;98567.25;4503748;31;20080;-80
2022/07/13 10:08:27;;;;;;;2.95;1.37;;;;;;;32.26;23.82;98550.44;4503349;31;20559;-81
2022/07/13 10:10:53;;;;;;;2.75;1.05;;;;;;;31.19;25.00;98561.69;4504045;31;20139;-82
2022/07/13 10:13:21;;;;;;;7.25;1.20;;;;;;;30.83;24.21;98560.72;4503992;31;20114;-82
2022/07/13 10:15:48;;;;;;;8.88;1.30;;;;;;;30.72;24.18;98560.16;4503370;31;20072;-83
2022/07/13 10:18:28;;;;;;;5.72;1.20;;;;;;;30.44;25.36;98559.91;4503078;31;20113;-82
2022/07/13 10:21:08;;;;;;;6.22;1.15;;;;;;;31.00;24.26;98551.56;4504393;31;20445;-82
2022/07/13 10:23:37;;;;;;;6.65;1.10;;;;;;;32.17;23.26;98550.56;4504530;31;20076;-84
2022/07/13 10:26:37;;;;;;;11.25;1.40;;;;;;;31.40;23.16;98544.16;4504711;31;20151;-83
2022/07/13 10:29:09;;;;;;;3.60;1.27;;;;;;;31.31;23.06;98538.91;4499011;31;20119;-82
2022/07/13 10:31:40;;;;;;;4.07;2.10;;;;;;;31.35;23.54;98534.03;4503867;31;20380;-82
2022/07/13 10:34:09;;;;;;;2.75;1.10;;;;;;;31.28;24.04;98546.47;4515338;31;20093;-82
2022/07/13 10:36:51;;;;;;;1.35;0.85;;;;;;;32.03;23.64;98545.28;4488240;31;20068;-81
2022/07/13 10:39:21;;;;;;;7.72;1.55;;;;;;;32.24;23.05;98542.63;4503815;31;20469;-80
2022/07/13 10:41:58;;;;;;;3.17;1.40;;;;;;;32.87;22.32;98540.91;4502807;31;20122;-80
2022/07/13 10:44:36;;;;;;;;;;;;;;;32.08;23.40;98542.88;4507518;31;20072;-80
2022/07/13 10:47:06;;;;;;;2.17;1.05;;;;;;;32.29;22.89;98547.38;4512059;31;19947;-81
2022/07/13 10:49:35;;;;;;;7.82;1.55;;;;;;;32.38;23.28;98539.06;4507747;31;20064;-81
2022/07/13 10:52:26;;;;;;;4.50;1.12;;;;;;;32.13;23.71;98545.81;4506019;31;20516;-81
2022/07/13 10:55:05;;;;;;;4.43;1.20;;;;;;;32.55;23.09;98538.81;4505506;31;20456;-80
2022/07/13 10:57:34;;;;;;;6.00;1.25;;;;;;;32.63;22.50;98528.78;4503767;31;20681;-81
2022/07/13 11:00:04;;;;;;;2.35;0.95;;;;;;;32.42;22.97;98544.84;4503462;31;20443;-81
2022/07/13 11:02:44;;;;;;;8.52;1.62;;;;;;;33.57;21.70;98539.84;4507209;31;20083;-81
2022/07/13 11:05:13;;;;;;;1.37;1.10;;;;;;;33.24;22.09;98533.50;4508830;31;20545;-81
2022/07/13 11:07:48;;;;;;;16.87;2.42;;;;;;;31.73;23.04;98512.53;4507547;31;20165;-80
2022/07/13 11:10:24;;;;;;;3.30;1.20;;;;;;;32.08;23.30;98529.53;4520095;31;20127;-81
2022/07/13 11:13:12;;;;;;;11.25;1.48;;;;;;;31.88;23.53;98534.66;4519110;31;20159;-81
2022/07/13 11:15:55;;;;;;;3.97;1.40;;;;;;;32.64;23.21;98524.25;4498379;31;20112;-81
2022/07/13 11:18:22;;;;;;;5.07;1.40;;;;;;;32.44;22.91;98522.28;4493078;31;20517;-80
2022/07/13 11:21:03;;;;;;;6.20;1.23;;;;;;;32.40;23.45;98523.69;4505000;31;20112;-81
2022/07/13 11:26:54;;;;;;;2.53;1.27;;;;;;;31.19;23.80;98521.69;4507392;31;20108;-81
2022/07/13 11:29:40;;;;;;;4.15;1.15;;;;;;;32.07;22.74;98527.88;4506795;31;20139;-81
2022/07/13 11:32:07;;;;;;;5.32;1.20;;;;;;;31.76;23.90;98530.84;4503206;31;20155;-81
2022/07/13 11:34:36;;;;;;;5.90;1.20;;;;;;;32.10;23.93;98522.16;4491851;31;328650;-81
2022/07/13 11:37:03;;;;;;;10.35;1.42;;;;;;;31.64;24.51;98525.97;4504551;31;20088;-81
2022/07/13 11:39:35;;;;;;;15.38;2.17;;;;;;;32.48;22.38;98528.88;4508242;31;20099;-81
2022/07/13 11:42:05;;;;;;;9.43;1.40;;;;;;;31.75;22.10;98527.34;4510496;31;20104;-81
2022/07/13 11:44:34;;;;;;;3.05;1.20;;;;;;;31.95;23.20;98525.72;4493605;31;20123;-81
2022/07/13 11:47:03;;;;;;;1.95;1.00;;;;;;;31.92;23.64;98518.09;4500811;31;20151;-81
2022/07/13 11:49:46;;;;;;;2.95;1.10;;;;;;;32.45;22.31;98525.78;4493784;31;20076;-81
2022/07/13 11:52:28;;;;;;;3.70;1.40;;;;;;;32.78;22.49;98523.34;4505667;31;20100;-81
2022/07/13 11:55:03;;;;;;;2.95;1.30;;;;;;;33.19;22.07;98512.72;4503942;31;20123;-81
2022/07/13 11:57:32;;;;;;;6.70;1.17;;;;;;;32.94;22.23;98508.88;4505403;31;20501;-81